Time;durP1;ratioP1;P1;durP2;ratioP2;P2;SDS_P1;SDS_P2;PMS_P1;PMS_P2;Temp;Humidity;BMP_temperature;BMP_pressure;BME280_temperature;BME280_humidity;BME280_pressure;Samples;Min_cycle;Max_cycle;Signal;HPM_P1;HPM_P2
2023/03/20 00:00:58;;;;;;;19.52;10.75;;;9.40;99.90;;;;;;5055279;27;20196;-65
2023/03/20 00:03:26;;;;;;;20.10;10.48;;;9.50;99.90;;;;;;5062710;27;20471;-65
2023/03/20 00:05:53;;;;;;;20.88;10.50;;;9.40;99.90;;;;;;5074069;27;20195;-65
2023/03/20 00:08:19;;;;;;;17.10;10.27;;;9.50;99.90;;;;;;5038207;28;20815;-65
2023/03/20 00:10:47;;;;;;;21.88;11.35;;;9.40;99.90;;;;;;5078056;27;20198;-65
2023/03/20 00:13:19;;;;;;;20.27;10.82;;;9.30;99.90;;;;;;5058488;27;20578;-65
2023/03/20 00:15:46;;;;;;;17.88;11.07;;;9.30;99.90;;;;;;5064799;27;20780;-65
2023/03/20 00:18:17;;;;;;;18.70;10.02;;;9.30;99.90;;;;;;5073418;27;20219;-65
2023/03/20 00:20:45;;;;;;;19.33;10.65;;;9.20;99.90;;;;;;5082564;27;20214;-65
2023/03/20 00:23:12;;;;;;;19.58;10.00;;;9.20;99.90;;;;;;5050849;27;20272;-65
2023/03/20 00:25:40;;;;;;;17.95;10.40;;;9.20;99.90;;;;;;5075971;28;20200;-65
2023/03/20 00:28:31;;;;;;;16.92;9.63;;;9.10;99.90;;;;;;5059350;27;20290;-65
2023/03/20 00:30:58;;;;;;;16.38;10.18;;;9.20;99.90;;;;;;5075968;27;20256;-65
2023/03/20 00:33:25;;;;;;;18.02;9.95;;;9.20;99.90;;;;;;5061483;28;20413;-65
2023/03/20 00:35:54;;;;;;;17.85;9.85;;;9.20;99.90;;;;;;5061168;27;20231;-65
2023/03/20 00:38:20;;;;;;;17.23;9.18;;;9.20;99.90;;;;;;5042186;27;21500;-65
2023/03/20 00:40:47;;;;;;;16.15;9.35;;;9.30;99.90;;;;;;5063379;28;20211;-65
2023/03/20 00:43:16;;;;;;;16.85;9.57;;;9.20;99.90;;;;;;5061511;27;20716;-65
2023/03/20 00:45:45;;;;;;;16.92;9.80;;;9.20;99.90;;;;;;5080833;28;20361;-65
2023/03/20 00:48:15;;;;;;;19.20;9.43;;;9.20;99.90;;;;;;5056880;27;20618;-65
2023/03/20 00:50:43;;;;;;;15.85;9.68;;;9.20;99.90;;;;;;5067404;27;20215;-66
2023/03/20 00:53:12;;;;;;;18.30;9.20;;;9.20;99.90;;;;;;5059865;27;21002;-65
2023/03/20 00:55:40;;;;;;;18.17;10.00;;;9.20;99.90;;;;;;5070701;27;20196;-65
2023/03/20 00:58:07;;;;;;;17.48;9.02;;;9.10;99.90;;;;;;5074483;27;20192;-65
2023/03/20 01:00:38;;;;;;;16.75;9.27;;;9.10;99.90;;;;;;5063997;27;20805;-65
2023/03/20 01:03:12;;;;;;;15.90;8.70;;;9.10;99.90;;;;;;5062181;28;20226;-65
2023/03/20 01:05:39;;;;;;;16.98;8.35;;;9.10;99.90;;;;;;5063718;28;20598;-65
2023/03/20 01:08:15;;;;;;;14.68;8.20;;;9.20;99.90;;;;;;5065301;27;20687;-65
2023/03/20 01:10:42;;;;;;;12.27;7.78;;;9.10;99.90;;;;;;5051025;27;20211;-65
2023/03/20 01:13:17;;;;;;;11.90;7.47;;;9.20;99.90;;;;;;5072378;27;20226;-65
2023/03/20 01:15:44;;;;;;;13.32;7.70;;;9.20;99.90;;;;;;5066922;28;23309;-65
2023/03/20 01:18:13;;;;;;;12.07;7.28;;;9.20;99.90;;;;;;5073660;28;20226;-65
2023/03/20 01:20:40;;;;;;;13.65;6.97;;;9.10;99.90;;;;;;5077122;27;20206;-65
2023/03/20 01:23:07;;;;;;;13.45;7.18;;;9.10;99.90;;;;;;5078950;27;20191;-65
2023/03/20 01:25:35;;;;;;;10.95;6.55;;;9.10;99.90;;;;;;5041813;28;21168;-65
2023/03/20 01:28:03;;;;;;;11.48;6.35;;;9.10;99.90;;;;;;5076211;28;20653;-65
2023/03/20 01:30:32;;;;;;;12.60;6.30;;;9.00;99.90;;;;;;5039124;28;20759;-65
2023/03/20 01:33:00;;;;;;;8.52;5.60;;;9.00;99.90;;;;;;5073122;27;20670;-65
2023/03/20 01:35:28;;;;;;;9.85;6.25;;;9.00;99.90;;;;;;5062147;27;20199;-66
2023/03/20 01:37:56;;;;;;;11.07;6.00;;;9.00;99.90;;;;;;5076411;27;20202;-65
2023/03/20 01:40:33;;;;;;;12.60;6.18;;;9.00;99.90;;;;;;5030764;28;21188;-65
2023/03/20 01:43:02;;;;;;;10.60;6.28;;;8.90;99.90;;;;;;5079778;27;20300;-65
2023/03/20 01:45:34;;;;;;;8.65;6.07;;;8.90;99.90;;;;;;5083741;27;20412;-65
2023/03/20 01:48:02;;;;;;;11.50;7.15;;;8.90;99.90;;;;;;5084036;27;20290;-65
2023/03/20 01:50:31;;;;;;;11.65;6.50;;;8.80;99.90;;;;;;5083418;27;20431;-65
2023/03/20 01:53:07;;;;;;;13.20;7.07;;;8.90;99.90;;;;;;5100742;27;20213;-65
2023/03/20 01:55:35;;;;;;;12.35;6.72;;;8.80;99.90;;;;;;5091752;27;20942;-65
2023/03/20 01:58:06;;;;;;;15.60;6.70;;;8.80;99.90;;;;;;5063163;27;20775;-65
2023/03/20 02:00:35;;;;;;;11.40;7.25;;;8.80;99.90;;;;;;5071659;27;20220;-65
2023/03/20 02:03:02;;;;;;;12.75;6.63;;;8.80;99.90;;;;;;5087358;27;20424;-65
2023/03/20 02:05:29;;;;;;;10.30;6.00;;;8.80;99.90;;;;;;5080904;27;20199;-65
2023/03/20 02:08:05;;;;;;;11.82;6.00;;;8.80;99.90;;;;;;5094795;27;20418;-65
2023/03/20 02:10:32;;;;;;;11.00;6.15;;;8.70;99.90;;;;;;5096243;27;20789;-65
2023/03/20 02:13:00;;;;;;;11.02;5.80;;;8.70;99.90;;;;;;5061349;27;20541;-65
2023/03/20 02:15:31;;;;;;;11.00;5.90;;;8.70;99.90;;;;;;5085714;27;20206;-65
2023/03/20 02:17:58;;;;;;;8.75;5.78;;;8.70;99.90;;;;;;5076338;27;20899;-65
2023/03/20 02:20:36;;;;;;;9.10;5.40;;;8.70;99.90;;;;;;5093010;27;20223;-65
2023/03/20 02:23:39;;;;;;;11.60;6.32;;;8.70;99.90;;;;;;5097136;27;20213;-65
2023/03/20 02:26:27;;;;;;;11.70;6.45;;;8.60;99.90;;;;;;5065619;27;20221;-65
2023/03/20 02:29:30;;;;;;;7.25;5.18;;;8.60;99.90;;;;;;5059235;27;20459;-65
2023/03/20 02:32:34;;;;;;;9.55;5.15;;;8.70;99.90;;;;;;5086808;27;20469;-65
2023/03/20 02:35:36;;;;;;;9.48;5.75;;;8.70;99.90;;;;;;5092961;27;20194;-65
2023/03/20 02:38:26;;;;;;;7.35;5.60;;;8.70;99.90;;;;;;5100879;27;20209;-65
2023/03/20 02:41:00;;;;;;;8.82;5.50;;;8.70;99.90;;;;;;5094983;27;20518;-65
2023/03/20 02:43:36;;;;;;;11.25;5.68;;;8.70;99.90;;;;;;5058055;27;20219;-65
2023/03/20 02:46:12;;;;;;;8.90;5.30;;;8.70;99.90;;;;;;5073808;28;20202;-65
2023/03/20 02:48:47;;;;;;;6.63;4.88;;;8.70;99.90;;;;;;5047710;27;20195;-65
2023/03/20 02:51:19;;;;;;;8.05;4.80;;;8.70;99.90;;;;;;5059164;27;20357;-65
2023/03/20 02:53:53;;;;;;;8.80;5.10;;;8.70;99.90;;;;;;5064100;28;20967;-65
2023/03/20 02:56:28;;;;;;;9.13;5.80;;;8.70;99.90;;;;;;5081282;28;20192;-65
2023/03/20 02:59:03;;;;;;;7.90;5.13;;;8.70;99.90;;;;;;5035831;28;20825;-65
2023/03/20 03:01:36;;;;;;;8.65;5.65;;;8.80;99.90;;;;;;5079769;28;20286;-66
2023/03/20 03:04:06;;;;;;;9.40;6.32;;;8.70;99.90;;;;;;5081009;28;20198;-66
2023/03/20 03:06:36;;;;;;;9.68;5.57;;;8.70;99.90;;;;;;5058236;28;20206;-65
2023/03/20 03:09:11;;;;;;;10.93;5.73;;;8.70;99.90;;;;;;5076342;28;20192;-65
2023/03/20 03:11:43;;;;;;;8.80;5.68;;;8.70;99.90;;;;;;5074430;28;20195;-65
2023/03/20 03:14:17;;;;;;;10.73;6.28;;;8.60;99.90;;;;;;5074861;28;20234;-65
2023/03/20 03:16:45;;;;;;;12.10;6.30;;;8.60;99.90;;;;;;5043395;28;20241;-65
2023/03/20 03:19:17;;;;;;;10.23;6.13;;;8.60;99.90;;;;;;5081596;28;20226;-65
2023/03/20 03:21:46;;;;;;;14.25;6.35;;;8.60;99.90;;;;;;5052835;28;20802;-65
2023/03/20 03:24:28;;;;;;;8.30;5.28;;;8.60;99.90;;;;;;5079227;28;20200;-65
2023/03/20 03:26:58;;;;;;;13.15;6.20;;;8.60;99.90;;;;;;5074218;28;20847;-65
2023/03/20 03:29:27;;;;;;;9.70;5.70;;;8.60;99.90;;;;;;5065389;28;20207;-65
2023/03/20 03:31:54;;;;;;;9.80;5.97;;;8.60;99.90;;;;;;5038010;28;20230;-65
2023/03/20 03:34:23;;;;;;;10.65;6.07;;;8.60;99.90;;;;;;5085409;27;20196;-65
2023/03/20 03:37:01;;;;;;;9.02;5.70;;;8.60;99.90;;;;;;5050656;27;20700;-65
2023/03/20 03:39:36;;;;;;;10.43;5.60;;;8.60;99.90;;;;;;5078947;28;20659;-65
2023/03/20 03:42:07;;;;;;;9.25;6.47;;;8.60;99.90;;;;;;5077284;28;20270;-65
2023/03/20 03:44:39;;;;;;;10.50;6.00;;;8.60;99.90;;;;;;5062675;27;20329;-65
2023/03/20 03:47:09;;;;;;;11.25;6.75;;;8.60;99.90;;;;;;5052067;27;20207;-65
2023/03/20 03:49:38;;;;;;;11.23;5.80;;;8.60;99.90;;;;;;5074570;27;20207;-65
2023/03/20 03:52:09;;;;;;;10.75;6.82;;;8.50;99.90;;;;;;5060223;27;20222;-65
2023/03/20 03:54:43;;;;;;;8.70;5.22;;;8.50;99.90;;;;;;5063428;28;20206;-65
2023/03/20 03:57:13;;;;;;;9.07;5.72;;;8.50;99.90;;;;;;5074660;28;20417;-65
2023/03/20 03:59:43;;;;;;;9.25;6.07;;;8.50;99.90;;;;;;5080310;28;20763;-65
2023/03/20 04:02:10;;;;;;;9.90;5.78;;;8.50;99.90;;;;;;5042889;27;20734;-65
2023/03/20 04:04:42;;;;;;;11.00;5.85;;;8.50;99.90;;;;;;5080295;27;20220;-65
2023/03/20 04:07:09;;;;;;;10.45;5.90;;;8.50;99.90;;;;;;5056294;28;20763;-65
2023/03/20 04:09:36;;;;;;;9.27;5.43;;;8.50;99.90;;;;;;5061829;27;20812;-65
2023/03/20 04:12:04;;;;;;;9.70;5.63;;;8.50;99.90;;;;;;5078059;28;20193;-65
2023/03/20 04:14:31;;;;;;;9.65;6.18;;;8.50;99.90;;;;;;5081491;28;20219;-65
2023/03/20 04:16:58;;;;;;;9.95;5.95;;;8.50;99.90;;;;;;5069809;28;20732;-66
2023/03/20 04:19:25;;;;;;;11.80;6.05;;;8.50;99.90;;;;;;5048119;27;20222;-65
2023/03/20 04:21:51;;;;;;;9.48;5.95;;;8.50;99.90;;;;;;5074544;28;20658;-65
2023/03/20 04:24:18;;;;;;;9.88;5.78;;;8.50;99.90;;;;;;5066112;28;20844;-65
2023/03/20 04:26:45;;;;;;;10.52;5.82;;;8.50;99.90;;;;;;5077141;27;20202;-65
2023/03/20 04:29:13;;;;;;;11.68;6.18;;;8.50;99.90;;;;;;5057025;28;20203;-65
2023/03/20 04:31:40;;;;;;;9.43;5.57;;;8.50;99.90;;;;;;5070517;27;20643;-65
2023/03/20 04:34:06;;;;;;;9.23;5.32;;;8.50;99.90;;;;;;5045405;27;20641;-65
2023/03/20 04:36:33;;;;;;;11.25;5.70;;;8.50;99.90;;;;;;5075844;28;20196;-65
2023/03/20 04:39:00;;;;;;;7.60;5.20;;;8.50;99.90;;;;;;5048780;28;20201;-65
2023/03/20 04:41:27;;;;;;;7.07;4.97;;;8.50;99.90;;;;;;5074990;28;20227;-65
2023/03/20 04:43:54;;;;;;;11.90;5.35;;;8.50;99.90;;;;;;5078652;27;20235;-65
2023/03/20 04:46:22;;;;;;;7.10;5.38;;;8.50;99.90;;;;;;5078413;27;20249;-65
2023/03/20 04:48:48;;;;;;;7.40;5.40;;;8.50;99.90;;;;;;5076499;27;20209;-65
2023/03/20 04:51:15;;;;;;;8.65;5.53;;;8.60;99.90;;;;;;5073494;27;20767;-65
2023/03/20 04:53:42;;;;;;;9.57;5.75;;;8.50;99.90;;;;;;5096311;27;20199;-65
2023/03/20 04:56:09;;;;;;;10.80;5.87;;;8.50;99.90;;;;;;5077719;27;20230;-65
2023/03/20 04:58:36;;;;;;;11.75;5.00;;;8.50;99.90;;;;;;5090534;27;20683;-65
2023/03/20 05:01:03;;;;;;;10.35;4.97;;;8.50;99.90;;;;;;5076177;27;20224;-65
2023/03/20 05:03:31;;;;;;;9.88;5.55;;;8.50;99.90;;;;;;5068088;27;20214;-65
2023/03/20 05:05:58;;;;;;;9.60;5.70;;;8.50;99.90;;;;;;5056870;27;20207;-65
2023/03/20 05:08:25;;;;;;;7.43;4.78;;;8.50;99.90;;;;;;5075500;27;20289;-65
2023/03/20 05:10:52;;;;;;;12.85;6.45;;;8.50;99.90;;;;;;5074507;27;20667;-65
2023/03/20 05:13:18;;;;;;;10.50;5.93;;;8.50;99.90;;;;;;5091509;27;20399;-65
2023/03/20 05:15:46;;;;;;;7.30;4.93;;;8.50;99.90;;;;;;5091570;27;20199;-65
2023/03/20 05:18:13;;;;;;;8.95;5.53;;;8.50;99.90;;;;;;5083997;27;20719;-65
2023/03/20 05:20:42;;;;;;;6.55;4.15;;;8.50;99.90;;;;;;5056226;27;20233;-65
2023/03/20 05:23:08;;;;;;;6.90;4.50;;;8.50;99.90;;;;;;5087569;27;20199;-65
2023/03/20 05:25:35;;;;;;;7.93;4.57;;;8.50;99.90;;;;;;5071926;27;20222;-65
2023/03/20 05:28:02;;;;;;;6.63;4.82;;;8.50;99.90;;;;;;5091657;27;20215;-65
2023/03/20 05:30:29;;;;;;;6.88;4.47;;;8.50;99.90;;;;;;5095464;27;20221;-65
2023/03/20 05:32:56;;;;;;;5.77;3.93;;;8.50;99.90;;;;;;5079992;27;20284;-65
2023/03/20 05:35:22;;;;;;;7.68;4.75;;;8.50;99.90;;;;;;5058974;27;21794;-65
2023/03/20 05:37:51;;;;;;;6.63;5.05;;;8.50;99.90;;;;;;5097553;27;20191;-65
2023/03/20 05:40:18;;;;;;;8.13;4.30;;;8.50;99.90;;;;;;5080493;27;21533;-65
2023/03/20 05:42:45;;;;;;;6.57;4.55;;;8.50;99.90;;;;;;5085811;27;20372;-65
2023/03/20 05:45:12;;;;;;;9.00;4.38;;;8.50;99.90;;;;;;5063718;27;20679;-65
2023/03/20 05:47:39;;;;;;;9.32;5.20;;;8.50;99.90;;;;;;5045629;28;20593;-65
2023/03/20 05:50:06;;;;;;;8.15;4.82;;;8.50;99.90;;;;;;5062199;27;20762;-65
2023/03/20 05:52:33;;;;;;;7.45;5.18;;;8.50;99.90;;;;;;5040749;28;20936;-65
2023/03/20 05:55:01;;;;;;;9.00;4.55;;;8.50;99.90;;;;;;5054584;27;20676;-65
2023/03/20 05:57:28;;;;;;;7.50;4.90;;;8.50;99.90;;;;;;5079888;28;20195;-65
2023/03/20 05:59:55;;;;;;;9.95;5.35;;;8.60;99.90;;;;;;5075393;28;20203;-65
2023/03/20 06:02:21;;;;;;;10.82;5.25;;;8.60;99.90;;;;;;5079567;27;20192;-65
2023/03/20 06:04:48;;;;;;;8.97;5.43;;;8.60;99.90;;;;;;5062493;27;20226;-65
2023/03/20 06:07:15;;;;;;;9.50;4.72;;;8.60;99.90;;;;;;5049489;27;21003;-65
2023/03/20 06:09:42;;;;;;;10.20;5.40;;;8.60;99.90;;;;;;5082288;27;20360;-65
2023/03/20 06:12:11;;;;;;;10.30;5.43;;;8.50;99.90;;;;;;5066993;27;20216;-65
2023/03/20 06:14:38;;;;;;;8.82;6.10;;;8.60;99.90;;;;;;5076498;28;20780;-65
2023/03/20 06:17:04;;;;;;;8.00;5.43;;;8.60;99.90;;;;;;5082356;27;20227;-65
2023/03/20 06:19:31;;;;;;;8.48;5.57;;;8.60;99.90;;;;;;5060924;27;20207;-65
2023/03/20 06:21:58;;;;;;;9.60;4.82;;;8.60;99.90;;;;;;5071894;27;20788;-65
2023/03/20 06:24:25;;;;;;;12.88;6.03;;;8.60;99.90;;;;;;5034969;27;21039;-65
2023/03/20 06:26:52;;;;;;;10.65;5.47;;;8.60;99.90;;;;;;5066742;27;20704;-65
2023/03/20 06:29:20;;;;;;;8.82;5.70;;;8.60;99.90;;;;;;5078363;28;20202;-65
2023/03/20 06:31:47;;;;;;;10.33;5.83;;;8.60;99.90;;;;;;5080499;27;20195;-65
2023/03/20 06:34:13;;;;;;;7.57;5.05;;;8.60;99.90;;;;;;5076263;27;20505;-66
2023/03/20 06:36:41;;;;;;;10.32;5.40;;;8.60;99.90;;;;;;5074472;27;20207;-65
2023/03/20 06:39:07;;;;;;;10.65;5.35;;;8.60;99.90;;;;;;5043865;27;20964;-66
2023/03/20 06:41:34;;;;;;;9.27;6.00;;;8.60;99.90;;;;;;5068873;27;20234;-66
2023/03/20 06:44:02;;;;;;;12.47;6.20;;;8.60;99.90;;;;;;5075348;27;20511;-66
2023/03/20 06:46:30;;;;;;;10.07;5.57;;;8.50;99.90;;;;;;5066342;27;20779;-66
2023/03/20 06:48:57;;;;;;;17.70;5.63;;;8.50;99.90;;;;;;5073646;27;20198;-65
2023/03/20 06:51:23;;;;;;;9.50;5.82;;;8.60;99.90;;;;;;5061836;27;20232;-65
2023/03/20 06:53:50;;;;;;;9.80;6.13;;;8.60;99.90;;;;;;5098196;27;20195;-66
2023/03/20 06:56:17;;;;;;;7.83;5.23;;;8.60;99.90;;;;;;5032606;27;20207;-66
2023/03/20 06:58:44;;;;;;;9.03;5.37;;;8.60;99.90;;;;;;5078374;27;20271;-66
2023/03/20 07:01:12;;;;;;;10.53;5.63;;;8.60;99.90;;;;;;5075923;27;20253;-65
2023/03/20 07:03:41;;;;;;;13.95;5.95;;;8.60;99.90;;;;;;5097778;27;20188;-66
2023/03/20 07:06:10;;;;;;;11.27;5.80;;;8.60;99.90;;;;;;5099593;27;20253;-65
2023/03/20 07:08:37;;;;;;;17.27;7.13;;;8.60;99.90;;;;;;5062699;27;20731;-66
2023/03/20 07:11:04;;;;;;;10.90;6.17;;;8.70;99.90;;;;;;5040380;28;20211;-65
2023/03/20 07:13:32;;;;;;;7.40;5.67;;;8.70;99.90;;;;;;5032041;27;20203;-66
2023/03/20 07:16:01;;;;;;;12.70;6.33;;;8.70;99.90;;;;;;5091581;27;20207;-66
2023/03/20 07:18:28;;;;;;;17.38;6.47;;;8.70;99.90;;;;;;5080066;27;20191;-66
2023/03/20 07:21:01;;;;;;;9.40;5.68;;;8.70;99.90;;;;;;5088743;27;20419;-66
2023/03/20 07:23:28;;;;;;;8.38;6.68;;;8.70;99.90;;;;;;5096019;27;20191;-65
2023/03/20 07:25:55;;;;;;;12.63;6.43;;;8.70;99.90;;;;;;5055256;27;20533;-65
2023/03/20 07:28:21;;;;;;;12.30;7.17;;;8.70;99.90;;;;;;5082474;27;20205;-65
2023/03/20 07:30:48;;;;;;;11.68;6.68;;;8.70;99.90;;;;;;5081528;27;20219;-65
2023/03/20 07:33:15;;;;;;;18.15;6.95;;;8.70;99.90;;;;;;5069286;27;20206;-66
2023/03/20 07:35:42;;;;;;;10.38;7.03;;;8.70;99.90;;;;;;5091722;27;20195;-66
2023/03/20 07:38:10;;;;;;;12.68;6.88;;;8.70;99.90;;;;;;5083337;28;20204;-66
2023/03/20 07:40:37;;;;;;;10.80;6.43;;;8.70;99.90;;;;;;5060698;27;20841;-66
2023/03/20 07:43:04;;;;;;;17.40;6.80;;;8.70;99.90;;;;;;5075809;27;20707;-65
2023/03/20 07:45:31;;;;;;;12.50;6.93;;;8.70;99.90;;;;;;5091189;27;20201;-66
2023/03/20 07:47:58;;;;;;;15.90;7.00;;;8.70;99.90;;;;;;5062289;27;20755;-65
2023/03/20 07:50:25;;;;;;;14.17;6.97;;;8.80;99.10;;;;;;5073128;27;20678;-65
2023/03/20 07:52:52;;;;;;;12.33;6.73;;;8.80;98.20;;;;;;5099529;27;20214;-66
2023/03/20 07:55:20;;;;;;;13.63;7.28;;;8.80;99.20;;;;;;5081297;27;20579;-66
2023/03/20 07:57:48;;;;;;;10.80;7.38;;;8.70;99.20;;;;;;5085390;27;20203;-66
2023/03/20 08:00:16;;;;;;;10.43;6.07;;;8.80;98.40;;;;;;5086063;27;20591;-66
2023/03/20 08:02:43;;;;;;;13.80;6.87;;;8.80;97.70;;;;;;5049267;27;20330;-66
2023/03/20 08:05:11;;;;;;;11.20;6.53;;;8.80;96.80;;;;;;5083277;27;20483;-66
2023/03/20 08:07:37;;;;;;;12.38;6.07;;;8.80;96.30;;;;;;5087068;27;20552;-66
2023/03/20 08:10:05;;;;;;;9.83;6.87;;;8.80;94.40;;;;;;5099350;27;20293;-66
2023/03/20 08:12:33;;;;;;;8.30;5.82;;;8.80;93.30;;;;;;5067924;27;20293;-66
2023/03/20 08:15:00;;;;;;;9.70;5.38;;;8.80;92.50;;;;;;5063791;27;20199;-66
2023/03/20 08:17:26;;;;;;;9.77;5.32;;;8.80;90.70;;;;;;5086633;27;20290;-66
2023/03/20 08:19:54;;;;;;;10.18;5.85;;;8.80;90.40;;;;;;5077783;27;20210;-66
2023/03/20 08:22:21;;;;;;;7.53;5.27;;;8.80;89.00;;;;;;5079726;27;20223;-66
2023/03/20 08:24:48;;;;;;;7.65;5.47;;;8.90;88.00;;;;;;5075016;27;20206;-66
2023/03/20 08:27:14;;;;;;;9.30;5.47;;;8.90;87.60;;;;;;5061904;27;20579;-66
2023/03/20 08:29:42;;;;;;;8.80;5.27;;;8.90;83.40;;;;;;5079785;27;20723;-66
2023/03/20 08:32:09;;;;;;;8.03;5.50;;;8.90;81.20;;;;;;5069714;27;20234;-66
2023/03/20 08:34:36;;;;;;;8.68;4.95;;;8.90;82.80;;;;;;5086485;27;20214;-66
2023/03/20 08:37:04;;;;;;;10.77;5.05;;;8.90;82.90;;;;;;5069511;27;20656;-66
2023/03/20 08:39:32;;;;;;;8.00;4.77;;;9.00;80.30;;;;;;5082733;27;20624;-66
2023/03/20 08:41:58;;;;;;;6.55;4.57;;;9.00;82.70;;;;;;5049008;27;20252;-66
2023/03/20 08:44:26;;;;;;;9.97;5.40;;;9.00;77.70;;;;;;5058922;27;20631;-66
2023/03/20 08:46:55;;;;;;;8.88;4.70;;;9.10;76.40;;;;;;5057078;28;20200;-66
2023/03/20 08:49:22;;;;;;;9.45;4.80;;;9.10;62.70;;;;;;5074307;27;20195;-65
2023/03/20 08:51:49;;;;;;;8.13;4.65;;;9.10;59.90;;;;;;5064092;27;20223;-66
2023/03/20 08:54:17;;;;;;;8.52;4.32;;;9.10;58.60;;;;;;5051137;27;20573;-66
2023/03/20 08:56:44;;;;;;;11.45;5.13;;;9.20;56.30;;;;;;5074919;27;20353;-65
2023/03/20 08:59:11;;;;;;;7.57;5.18;;;9.20;56.20;;;;;;5041993;27;20455;-65
2023/03/20 09:01:38;;;;;;;5.85;4.57;;;9.20;54.50;;;;;;5062712;27;20242;-66
2023/03/20 09:04:06;;;;;;;6.57;4.38;;;9.20;53.70;;;;;;5063747;27;20210;-65
2023/03/20 09:06:36;;;;;;;6.65;4.57;;;9.30;56.00;;;;;;5069877;27;20223;-66
2023/03/20 09:09:03;;;;;;;9.20;4.38;;;9.30;55.10;;;;;;5066955;27;20199;-66
2023/03/20 09:11:31;;;;;;;5.93;4.60;;;9.30;53.40;;;;;;5063190;27;20203;-66
2023/03/20 09:13:58;;;;;;;7.32;4.57;;;9.40;48.10;;;;;;5037898;27;20678;-66
2023/03/20 09:16:24;;;;;;;11.43;4.82;;;9.30;42.90;;;;;;5062379;27;20195;-66
2023/03/20 09:18:51;;;;;;;10.60;4.50;;;9.30;39.60;;;;;;5071955;27;20195;-65
2023/03/20 09:21:20;;;;;;;7.85;4.70;;;9.30;32.10;;;;;;5066726;27;20465;-66
2023/03/20 09:23:47;;;;;;;7.43;4.63;;;9.30;29.80;;;;;;5079749;28;20476;-65
2023/03/20 09:26:13;;;;;;;8.10;4.68;;;9.40;36.10;;;;;;5057461;27;20729;-65
2023/03/20 09:28:40;;;;;;;7.50;4.65;;;9.40;34.20;;;;;;5065492;27;20200;-66
2023/03/20 09:31:07;;;;;;;6.40;4.60;;;9.40;26.70;;;;;;5027381;27;21323;-66
2023/03/20 09:33:34;;;;;;;8.18;4.57;;;9.50;23.90;;;;;;5069436;27;20195;-65
2023/03/20 09:36:01;;;;;;;7.10;4.45;;;9.60;21.70;;;;;;5062945;27;20211;-65
2023/03/20 09:38:29;;;;;;;5.78;4.03;;;9.60;19.50;;;;;;5057523;27;20203;-66
2023/03/20 09:40:57;;;;;;;7.55;3.83;;;9.60;18.00;;;;;;5044194;27;20219;-66
2023/03/20 09:43:37;;;;;;;7.88;3.92;;;9.60;13.10;;;;;;5075409;27;20229;-65
2023/03/20 09:46:16;;;;;;;6.65;4.15;;;9.60;8.90;;;;;;5039825;27;20207;-65
2023/03/20 09:48:49;;;;;;;4.97;3.47;;;9.60;1.80;;;;;;5063799;28;20196;-66
2023/03/20 09:51:25;;;;;;;6.05;4.03;;;9.70;8.30;;;;;;5069323;27;20707;-66
2023/03/20 09:53:56;;;;;;;9.43;3.63;;;9.80;12.00;;;;;;5069275;27;20220;-66
2023/03/20 09:56:26;;;;;;;7.32;3.95;;;9.80;1.00;;;;;;5090950;27;20676;-65
2023/03/20 09:58:56;;;;;;;6.63;4.03;;;9.30;1.00;;;;;;5066691;27;20594;-66
2023/03/20 10:01:26;;;;;;;6.72;4.28;;;9.80;1.00;;;;;;5067019;27;20447;-66
2023/03/20 10:03:56;;;;;;;8.88;4.30;;;9.80;1.00;;;;;;5070361;27;20203;-66
2023/03/20 10:06:24;;;;;;;5.07;3.55;;;9.80;1.00;;;;;;5082907;27;20399;-66
2023/03/20 10:08:54;;;;;;;6.35;3.65;;;9.90;1.00;;;;;;5077141;27;20237;-65
2023/03/20 10:11:50;;;;;;;8.48;3.78;;;9.80;1.00;;;;;;5077835;27;20749;-65
2023/03/20 10:14:24;;;;;;;8.38;3.85;;;9.90;1.00;;;;;;5089690;27;20210;-65
2023/03/20 10:17:10;;;;;;;5.32;3.17;;;10.00;1.50;;;;;;5053364;27;20218;-66
2023/03/20 10:19:44;;;;;;;5.45;3.67;;;10.10;1.00;;;;;;5084603;27;20202;-65
2023/03/20 10:22:24;;;;;;;5.75;3.78;;;10.20;1.00;;;;;;5082022;27;20644;-65
2023/03/20 10:24:57;;;;;;;8.57;4.00;;;10.20;1.00;;;;;;5079944;27;20195;-66
2023/03/20 10:27:25;;;;;;;8.35;4.28;;;10.20;1.00;;;;;;5072303;27;21013;-65
2023/03/20 10:30:03;;;;;;;5.85;4.00;;;10.20;1.00;;;;;;5065969;27;20202;-66
2023/03/20 10:32:36;;;;;;;6.65;3.72;;;10.20;1.00;;;;;;5091240;27;20198;-65
2023/03/20 10:35:18;;;;;;;5.75;3.25;;;10.30;1.00;;;;;;5079755;27;20203;-66
2023/03/20 10:37:56;;;;;;;6.32;3.60;;;10.50;1.00;;;;;;5060284;27;21086;-66
2023/03/20 10:40:28;;;;;;;6.05;3.63;;;10.50;1.00;;;;;;5085554;27;20210;-66
2023/03/20 10:43:00;;;;;;;6.03;3.78;;;10.50;1.00;;;;;;5068858;27;20546;-66
2023/03/20 10:45:34;;;;;;;6.78;3.55;;;10.50;1.00;;;;;;5039415;27;20717;-66
2023/03/20 10:48:06;;;;;;;5.25;3.53;;;10.60;1.00;;;;;;5039061;28;20613;-66
2023/03/20 10:50:37;;;;;;;8.18;3.35;;;10.60;1.00;;;;;;5060025;27;20207;-66
2023/03/20 10:53:06;;;;;;;7.90;3.58;;;10.70;1.00;;;;;;5038064;27;20200;-65
2023/03/20 10:55:37;;;;;;;8.02;3.65;;;10.70;1.00;;;;;;5041160;28;20658;-65
2023/03/20 10:58:13;;;;;;;5.28;3.05;;;10.80;1.00;;;;;;5051216;28;20437;-66
2023/03/20 11:00:41;;;;;;;8.30;3.47;;;10.80;1.00;;;;;;5042555;27;20537;-65
2023/03/20 11:03:17;;;;;;;7.35;3.30;;;10.70;1.00;;;;;;5033694;27;20234;-65
2023/03/20 11:05:44;;;;;;;4.72;3.15;;;10.70;1.00;;;;;;5050320;28;20191;-66
2023/03/20 11:08:13;;;;;;;6.50;2.67;;;10.70;1.00;;;;;;5061256;28;20658;-66
2023/03/20 11:10:43;;;;;;;4.07;3.22;;;10.70;1.00;;;;;;5076410;28;20195;-66
2023/03/20 11:13:18;;;;;;;4.93;2.97;;;10.70;1.00;;;;;;5074655;27;20282;-66
2023/03/20 11:15:45;;;;;;;7.25;3.30;;;10.80;1.00;;;;;;5043854;27;20738;-66
2023/03/20 11:18:15;;;;;;;7.50;3.53;;;10.90;1.00;;;;;;5031782;28;20217;-66
2023/03/20 11:20:46;;;;;;;8.23;3.20;;;10.90;1.00;;;;;;5079347;28;20230;-66
2023/03/20 11:23:16;;;;;;;4.47;3.53;;;10.90;1.00;;;;;;5056958;28;20722;-66
2023/03/20 11:25:52;;;;;;;7.93;3.55;;;10.90;1.00;;;;;;5069907;28;20713;-66
2023/03/20 11:28:32;;;;;;;7.60;3.47;;;11.00;1.00;;;;;;5068437;28;20192;-66
2023/03/20 11:31:00;;;;;;;4.40;3.08;;;11.00;1.00;;;;;;5022935;28;21544;-66
2023/03/20 11:33:28;;;;;;;5.38;3.17;;;11.00;1.00;;;;;;5032187;28;20214;-65
2023/03/20 11:35:56;;;;;;;9.13;3.70;;;11.10;1.00;;;;;;5040666;28;20393;-66
2023/03/20 11:38:24;;;;;;;9.20;3.60;;;11.10;1.00;;;;;;5062242;28;20200;-65
2023/03/20 11:40:52;;;;;;;8.52;3.55;;;11.20;41.70;;;;;;5053920;28;20214;-66
2023/03/20 11:43:21;;;;;;;6.47;3.40;;;11.20;1.00;;;;;;5064727;28;20231;-66
2023/03/20 11:45:50;;;;;;;7.10;3.15;;;11.30;99.90;;;;;;5069623;28;20756;-66
2023/03/20 11:48:20;;;;;;;10.63;3.80;;;11.30;99.90;;;;;;5049292;28;20700;-66
2023/03/20 11:50:51;;;;;;;6.18;3.38;;;11.30;99.90;;;;;;5076786;28;20223;-66
2023/03/20 11:53:24;;;;;;;8.50;3.05;;;11.30;99.90;;;;;;5070064;27;20226;-66
2023/03/20 11:56:03;;;;;;;5.15;3.00;;;11.30;99.90;;;;;;5064612;28;20192;-66
2023/03/20 11:58:30;;;;;;;6.13;2.97;;;11.20;99.90;;;;;;5045620;27;20199;-65
2023/03/20 12:00:57;;;;;;;4.63;3.13;;;11.10;99.90;;;;;;5060517;28;20211;-65
2023/03/20 12:03:43;;;;;;;10.18;3.40;;;11.00;99.90;;;;;;5025678;27;20578;-66
2023/03/20 12:06:16;;;;;;;4.45;2.97;;;10.90;99.90;;;;;;5083680;27;20545;-65
2023/03/20 12:08:50;;;;;;;9.07;3.63;;;11.10;99.90;;;;;;5077878;27;20200;-66
2023/03/20 12:11:35;;;;;;;6.93;3.72;;;11.30;99.90;;;;;;5079023;27;20704;-66
2023/03/20 12:14:05;;;;;;;6.18;3.05;;;11.20;99.90;;;;;;5069435;27;20526;-66
2023/03/20 12:16:34;;;;;;;3.83;3.28;;;11.10;99.90;;;;;;5080546;27;20696;-65
2023/03/20 12:19:06;;;;;;;7.65;3.67;;;11.00;99.90;;;;;;5021267;27;20213;-66
2023/03/20 12:21:39;;;;;;;6.68;3.40;;;10.90;99.90;;;;;;5075625;27;20252;-65
2023/03/20 12:24:14;;;;;;;8.27;4.00;;;10.90;99.90;;;;;;5052113;27;20720;-65
2023/03/20 12:26:50;;;;;;;5.22;3.20;;;10.90;99.90;;;;;;5055465;27;20200;-65
2023/03/20 12:29:22;;;;;;;5.97;3.75;;;10.90;99.90;;;;;;5047033;28;20551;-65
2023/03/20 12:31:55;;;;;;;8.20;4.28;;;10.90;99.90;;;;;;5064531;27;20508;-65
2023/03/20 12:34:26;;;;;;;7.00;3.80;;;10.80;99.90;;;;;;5059824;27;23609;-65
2023/03/20 12:36:56;;;;;;;7.28;4.10;;;10.80;99.90;;;;;;5053942;27;20211;-65
2023/03/20 12:39:27;;;;;;;7.57;4.05;;;10.80;99.90;;;;;;5075109;27;20605;-65
2023/03/20 12:42:08;;;;;;;9.02;3.95;;;10.80;99.90;;;;;;5057879;27;20199;-66
2023/03/20 12:44:41;;;;;;;8.25;3.95;;;10.70;99.90;;;;;;5059954;27;20325;-65
2023/03/20 12:47:53;;;;;;;11.60;4.45;;;10.70;99.90;;;;;;5091116;27;20192;-65
2023/03/20 12:50:28;;;;;;;6.47;4.05;;;10.60;99.90;;;;;;4944688;28;20246;-65
2023/03/20 12:53:14;;;;;;;7.10;4.20;;;10.60;99.90;;;;;;5073047;28;20203;-65
2023/03/20 12:55:50;;;;;;;7.13;4.22;;;10.60;99.90;;;;;;5075633;27;20191;-65
2023/03/20 12:58:27;;;;;;;8.18;4.53;;;10.70;99.90;;;;;;5028619;28;20223;-65
2023/03/20 13:01:01;;;;;;;6.20;4.05;;;10.70;99.90;;;;;;5022513;27;20225;-65
2023/03/20 13:03:49;;;;;;;10.63;4.53;;;10.80;99.90;;;;;;5059868;27;20242;-65
2023/03/20 13:06:23;;;;;;;13.15;4.10;;;10.70;99.90;;;;;;5042595;27;20587;-65
2023/03/20 13:09:13;;;;;;;8.68;4.53;;;10.70;99.90;;;;;;5079870;27;20203;-65